sensor_id;sensor_type;location;lat;lon;timestamp;P1;durP1;ratioP1;P2;durP2;ratioP2
67904;SDS011;54709;43.614;1.576;2023-02-26T00:00:28;9.32;;;6.35;;
67904;SDS011;54709;43.614;1.576;2023-02-26T00:02:54;9.25;;;6.43;;
67904;SDS011;54709;43.614;1.576;2023-02-26T00:05:19;11.85;;;7.40;;
67904;SDS011;54709;43.614;1.576;2023-02-26T00:07:45;9.65;;;6.68;;
67904;SDS011;54709;43.614;1.576;2023-02-26T00:10:11;9.18;;;7.00;;
67904;SDS011;54709;43.614;1.576;2023-02-26T00:12:38;10.30;;;6.53;;
67904;SDS011;54709;43.614;1.576;2023-02-26T00:15:04;9.10;;;6.30;;
67904;SDS011;54709;43.614;1.576;2023-02-26T00:20:14;9.18;;;6.45;;
67904;SDS011;54709;43.614;1.576;2023-02-26T00:22:43;7.78;;;6.15;;
67904;SDS011;54709;43.614;1.576;2023-02-26T00:25:08;9.10;;;6.10;;
67904;SDS011;54709;43.614;1.576;2023-02-26T00:27:34;8.30;;;6.00;;
67904;SDS011;54709;43.614;1.576;2023-02-26T00:30:01;8.80;;;6.10;;
67904;SDS011;54709;43.614;1.576;2023-02-26T00:32:28;7.57;;;6.05;;
67904;SDS011;54709;43.614;1.576;2023-02-26T00:34:54;13.05;;;6.50;;
67904;SDS011;54709;43.614;1.576;2023-02-26T00:37:32;9.50;;;6.82;;
67904;SDS011;54709;43.614;1.576;2023-02-26T00:43:05;9.00;;;6.47;;
67904;SDS011;54709;43.614;1.576;2023-02-26T00:45:33;10.13;;;6.57;;
67904;SDS011;54709;43.614;1.576;2023-02-26T00:48:14;8.07;;;6.32;;
67904;SDS011;54709;43.614;1.576;2023-02-26T00:50:55;10.38;;;6.45;;
67904;SDS011;54709;43.614;1.576;2023-02-26T00:53:28;7.82;;;6.38;;
67904;SDS011;54709;43.614;1.576;2023-02-26T00:55:57;9.93;;;6.82;;
67904;SDS011;54709;43.614;1.576;2023-02-26T00:58:22;9.88;;;6.22;;
67904;SDS011;54709;43.614;1.576;2023-02-26T01:00:48;9.27;;;6.60;;
67904;SDS011;54709;43.614;1.576;2023-02-26T01:03:13;11.88;;;7.07;;
67904;SDS011;54709;43.614;1.576;2023-02-26T01:05:39;9.32;;;6.75;;
67904;SDS011;54709;43.614;1.576;2023-02-26T01:08:08;9.95;;;7.40;;
67904;SDS011;54709;43.614;1.576;2023-02-26T01:10:38;13.50;;;7.53;;
67904;SDS011;54709;43.614;1.576;2023-02-26T01:13:04;11.80;;;7.78;;
67904;SDS011;54709;43.614;1.576;2023-02-26T01:15:29;11.30;;;8.27;;
67904;SDS011;54709;43.614;1.576;2023-02-26T01:21:25;12.13;;;8.95;;
67904;SDS011;54709;43.614;1.576;2023-02-26T01:23:44;12.85;;;8.93;;
67904;SDS011;54709;43.614;1.576;2023-02-26T01:26:20;12.35;;;8.70;;
67904;SDS011;54709;43.614;1.576;2023-02-26T01:28:47;14.05;;;8.32;;
67904;SDS011;54709;43.614;1.576;2023-02-26T01:31:21;12.38;;;8.32;;
67904;SDS011;54709;43.614;1.576;2023-02-26T01:33:59;12.30;;;8.60;;
67904;SDS011;54709;43.614;1.576;2023-02-26T01:36:30;12.75;;;8.38;;
67904;SDS011;54709;43.614;1.576;2023-02-26T01:41:51;13.05;;;8.10;;
67904;SDS011;54709;43.614;1.576;2023-02-26T01:44:26;13.90;;;9.15;;
67904;SDS011;54709;43.614;1.576;2023-02-26T01:50:26;13.20;;;8.38;;
67904;SDS011;54709;43.614;1.576;2023-02-26T01:55:27;13.30;;;8.35;;
67904;SDS011;54709;43.614;1.576;2023-02-26T01:57:54;13.23;;;8.77;;
67904;SDS011;54709;43.614;1.576;2023-02-26T02:00:21;13.95;;;9.20;;
67904;SDS011;54709;43.614;1.576;2023-02-26T02:02:47;12.43;;;8.48;;
67904;SDS011;54709;43.614;1.576;2023-02-26T02:05:14;15.50;;;8.73;;
67904;SDS011;54709;43.614;1.576;2023-02-26T02:07:49;13.95;;;8.55;;
67904;SDS011;54709;43.614;1.576;2023-02-26T02:10:14;10.73;;;7.90;;
67904;SDS011;54709;43.614;1.576;2023-02-26T02:12:43;11.52;;;7.43;;
67904;SDS011;54709;43.614;1.576;2023-02-26T02:15:20;12.73;;;8.05;;
67904;SDS011;54709;43.614;1.576;2023-02-26T02:18:04;10.77;;;7.28;;
67904;SDS011;54709;43.614;1.576;2023-02-26T02:20:44;11.35;;;7.65;;
67904;SDS011;54709;43.614;1.576;2023-02-26T02:26:05;11.38;;;7.65;;
67904;SDS011;54709;43.614;1.576;2023-02-26T02:31:10;13.25;;;7.40;;
67904;SDS011;54709;43.614;1.576;2023-02-26T02:34:32;11.75;;;7.55;;
67904;SDS011;54709;43.614;1.576;2023-02-26T02:36:46;13.68;;;7.90;;
67904;SDS011;54709;43.614;1.576;2023-02-26T02:40:03;11.10;;;7.00;;
67904;SDS011;54709;43.614;1.576;2023-02-26T02:42:05;12.25;;;7.18;;
67904;SDS011;54709;43.614;1.576;2023-02-26T02:44:35;11.15;;;7.15;;
67904;SDS011;54709;43.614;1.576;2023-02-26T02:47:03;9.70;;;6.72;;
67904;SDS011;54709;43.614;1.576;2023-02-26T02:49:33;14.00;;;6.72;;
67904;SDS011;54709;43.614;1.576;2023-02-26T02:52:17;10.57;;;6.78;;
67904;SDS011;54709;43.614;1.576;2023-02-26T02:54:54;10.52;;;7.35;;
67904;SDS011;54709;43.614;1.576;2023-02-26T02:57:36;12.75;;;7.13;;
67904;SDS011;54709;43.614;1.576;2023-02-26T03:00:06;11.25;;;7.40;;
67904;SDS011;54709;43.614;1.576;2023-02-26T03:05:03;11.13;;;6.60;;
67904;SDS011;54709;43.614;1.576;2023-02-26T03:07:32;10.35;;;6.05;;
67904;SDS011;54709;43.614;1.576;2023-02-26T03:09:59;8.95;;;6.50;;
67904;SDS011;54709;43.614;1.576;2023-02-26T03:12:25;8.63;;;6.47;;
67904;SDS011;54709;43.614;1.576;2023-02-26T03:14:54;11.05;;;6.50;;
67904;SDS011;54709;43.614;1.576;2023-02-26T03:17:28;11.52;;;6.50;;
67904;SDS011;54709;43.614;1.576;2023-02-26T03:25:26;9.20;;;6.30;;
67904;SDS011;54709;43.614;1.576;2023-02-26T03:38:54;8.65;;;5.00;;
67904;SDS011;54709;43.614;1.576;2023-02-26T03:41:34;6.85;;;4.70;;
67904;SDS011;54709;43.614;1.576;2023-02-26T03:44:26;8.38;;;4.90;;
67904;SDS011;54709;43.614;1.576;2023-02-26T03:46:56;7.88;;;5.38;;
67904;SDS011;54709;43.614;1.576;2023-02-26T03:49:25;8.02;;;4.95;;
67904;SDS011;54709;43.614;1.576;2023-02-26T03:51:53;7.95;;;4.60;;
67904;SDS011;54709;43.614;1.576;2023-02-26T03:54:25;6.13;;;4.30;;
67904;SDS011;54709;43.614;1.576;2023-02-26T03:56:52;5.25;;;4.20;;
67904;SDS011;54709;43.614;1.576;2023-02-26T03:59:18;7.03;;;4.30;;
67904;SDS011;54709;43.614;1.576;2023-02-26T04:01:48;6.43;;;4.80;;
67904;SDS011;54709;43.614;1.576;2023-02-26T04:04:22;6.03;;;4.13;;
67904;SDS011;54709;43.614;1.576;2023-02-26T04:06:53;5.80;;;4.38;;
67904;SDS011;54709;43.614;1.576;2023-02-26T04:09:19;6.72;;;3.58;;
67904;SDS011;54709;43.614;1.576;2023-02-26T04:11:45;5.97;;;3.83;;
67904;SDS011;54709;43.614;1.576;2023-02-26T04:14:13;4.40;;;3.55;;
67904;SDS011;54709;43.614;1.576;2023-02-26T04:16:39;6.28;;;3.92;;
67904;SDS011;54709;43.614;1.576;2023-02-26T04:19:06;4.82;;;3.80;;
67904;SDS011;54709;43.614;1.576;2023-02-26T04:21:31;6.63;;;4.43;;
67904;SDS011;54709;43.614;1.576;2023-02-26T04:23:56;6.30;;;3.58;;
67904;SDS011;54709;43.614;1.576;2023-02-26T04:26:22;5.38;;;3.63;;
67904;SDS011;54709;43.614;1.576;2023-02-26T04:28:47;5.35;;;4.05;;
67904;SDS011;54709;43.614;1.576;2023-02-26T04:31:12;6.82;;;3.90;;
67904;SDS011;54709;43.614;1.576;2023-02-26T04:33:39;6.53;;;4.03;;
67904;SDS011;54709;43.614;1.576;2023-02-26T04:36:04;5.18;;;3.55;;
67904;SDS011;54709;43.614;1.576;2023-02-26T04:38:30;5.13;;;3.63;;
67904;SDS011;54709;43.614;1.576;2023-02-26T04:40:55;7.47;;;3.67;;
67904;SDS011;54709;43.614;1.576;2023-02-26T04:43:21;5.95;;;3.67;;
67904;SDS011;54709;43.614;1.576;2023-02-26T04:45:47;3.63;;;2.85;;
67904;SDS011;54709;43.614;1.576;2023-02-26T04:48:13;5.10;;;3.28;;
67904;SDS011;54709;43.614;1.576;2023-02-26T04:50:39;6.22;;;3.80;;
67904;SDS011;54709;43.614;1.576;2023-02-26T04:53:04;5.03;;;3.38;;
67904;SDS011;54709;43.614;1.576;2023-02-26T04:55:30;6.47;;;3.28;;
67904;SDS011;54709;43.614;1.576;2023-02-26T04:57:55;4.35;;;3.13;;
67904;SDS011;54709;43.614;1.576;2023-02-26T05:00:21;5.05;;;3.15;;
67904;SDS011;54709;43.614;1.576;2023-02-26T05:02:46;4.90;;;3.35;;
67904;SDS011;54709;43.614;1.576;2023-02-26T05:05:11;4.85;;;3.10;;
67904;SDS011;54709;43.614;1.576;2023-02-26T05:07:37;4.80;;;3.05;;
67904;SDS011;54709;43.614;1.576;2023-02-26T05:10:03;8.52;;;3.20;;
67904;SDS011;54709;43.614;1.576;2023-02-26T05:12:29;5.10;;;2.83;;
67904;SDS011;54709;43.614;1.576;2023-02-26T05:14:55;6.57;;;3.30;;
67904;SDS011;54709;43.614;1.576;2023-02-26T05:17:20;4.88;;;2.90;;
67904;SDS011;54709;43.614;1.576;2023-02-26T05:19:45;9.20;;;3.20;;
67904;SDS011;54709;43.614;1.576;2023-02-26T05:22:11;6.18;;;2.92;;
67904;SDS011;54709;43.614;1.576;2023-02-26T05:24:36;6.15;;;2.67;;
67904;SDS011;54709;43.614;1.576;2023-02-26T05:27:02;5.07;;;2.80;;
67904;SDS011;54709;43.614;1.576;2023-02-26T05:29:27;4.80;;;2.90;;
67904;SDS011;54709;43.614;1.576;2023-02-26T05:31:53;4.45;;;2.88;;
67904;SDS011;54709;43.614;1.576;2023-02-26T05:34:18;4.47;;;2.85;;
67904;SDS011;54709;43.614;1.576;2023-02-26T05:36:44;5.38;;;2.70;;
67904;SDS011;54709;43.614;1.576;2023-02-26T05:39:09;5.97;;;2.85;;
67904;SDS011;54709;43.614;1.576;2023-02-26T05:41:34;3.83;;;2.58;;
67904;SDS011;54709;43.614;1.576;2023-02-26T05:44:00;4.55;;;2.42;;
67904;SDS011;54709;43.614;1.576;2023-02-26T05:46:26;4.88;;;2.85;;
67904;SDS011;54709;43.614;1.576;2023-02-26T05:48:52;6.20;;;2.90;;
67904;SDS011;54709;43.614;1.576;2023-02-26T05:51:17;5.82;;;3.33;;
67904;SDS011;54709;43.614;1.576;2023-02-26T05:53:43;4.70;;;2.80;;
67904;SDS011;54709;43.614;1.576;2023-02-26T05:56:10;4.40;;;2.88;;
67904;SDS011;54709;43.614;1.576;2023-02-26T05:58:35;5.47;;;2.70;;
67904;SDS011;54709;43.614;1.576;2023-02-26T06:01:01;6.97;;;3.00;;
67904;SDS011;54709;43.614;1.576;2023-02-26T06:03:26;7.30;;;3.00;;
67904;SDS011;54709;43.614;1.576;2023-02-26T06:05:52;7.13;;;2.90;;
67904;SDS011;54709;43.614;1.576;2023-02-26T06:08:17;7.30;;;3.38;;
67904;SDS011;54709;43.614;1.576;2023-02-26T06:10:42;6.15;;;2.88;;
67904;SDS011;54709;43.614;1.576;2023-02-26T06:13:08;6.03;;;3.03;;
67904;SDS011;54709;43.614;1.576;2023-02-26T06:15:33;5.25;;;2.70;;
67904;SDS011;54709;43.614;1.576;2023-02-26T06:17:59;5.07;;;2.63;;
67904;SDS011;54709;43.614;1.576;2023-02-26T06:20:24;7.22;;;3.15;;
67904;SDS011;54709;43.614;1.576;2023-02-26T06:22:50;5.72;;;2.92;;
67904;SDS011;54709;43.614;1.576;2023-02-26T06:25:15;7.75;;;3.03;;
67904;SDS011;54709;43.614;1.576;2023-02-26T06:27:41;8.02;;;3.33;;
67904;SDS011;54709;43.614;1.576;2023-02-26T06:30:06;5.55;;;2.80;;
67904;SDS011;54709;43.614;1.576;2023-02-26T06:32:32;8.13;;;2.58;;
67904;SDS011;54709;43.614;1.576;2023-02-26T06:34:57;6.25;;;2.95;;
67904;SDS011;54709;43.614;1.576;2023-02-26T06:37:23;7.68;;;3.00;;
67904;SDS011;54709;43.614;1.576;2023-02-26T06:39:48;5.53;;;2.90;;
67904;SDS011;54709;43.614;1.576;2023-02-26T06:42:14;6.63;;;2.50;;
67904;SDS011;54709;43.614;1.576;2023-02-26T06:44:39;4.20;;;2.78;;
67904;SDS011;54709;43.614;1.576;2023-02-26T06:47:04;7.90;;;3.28;;
67904;SDS011;54709;43.614;1.576;2023-02-26T06:49:30;6.15;;;3.00;;
67904;SDS011;54709;43.614;1.576;2023-02-26T06:51:56;6.22;;;3.00;;
67904;SDS011;54709;43.614;1.576;2023-02-26T06:54:21;6.57;;;3.30;;
67904;SDS011;54709;43.614;1.576;2023-02-26T06:56:46;6.15;;;2.65;;
67904;SDS011;54709;43.614;1.576;2023-02-26T06:59:12;7.10;;;2.80;;
67904;SDS011;54709;43.614;1.576;2023-02-26T07:01:39;5.82;;;2.78;;
67904;SDS011;54709;43.614;1.576;2023-02-26T07:04:04;7.68;;;3.08;;
67904;SDS011;54709;43.614;1.576;2023-02-26T07:06:30;3.97;;;2.38;;
67904;SDS011;54709;43.614;1.576;2023-02-26T07:08:55;5.18;;;3.00;;
67904;SDS011;54709;43.614;1.576;2023-02-26T07:11:21;4.65;;;2.67;;
67904;SDS011;54709;43.614;1.576;2023-02-26T07:13:46;7.47;;;2.83;;
67904;SDS011;54709;43.614;1.576;2023-02-26T07:16:12;7.10;;;2.67;;
67904;SDS011;54709;43.614;1.576;2023-02-26T07:18:37;6.72;;;2.53;;
67904;SDS011;54709;43.614;1.576;2023-02-26T07:21:03;4.55;;;2.50;;
67904;SDS011;54709;43.614;1.576;2023-02-26T07:23:29;6.18;;;2.97;;
67904;SDS011;54709;43.614;1.576;2023-02-26T07:25:55;5.75;;;2.70;;
67904;SDS011;54709;43.614;1.576;2023-02-26T07:28:22;8.88;;;2.78;;
67904;SDS011;54709;43.614;1.576;2023-02-26T07:30:47;7.63;;;3.13;;
67904;SDS011;54709;43.614;1.576;2023-02-26T07:33:13;8.13;;;2.75;;
67904;SDS011;54709;43.614;1.576;2023-02-26T07:35:38;5.57;;;2.72;;
67904;SDS011;54709;43.614;1.576;2023-02-26T07:38:04;5.05;;;2.80;;
67904;SDS011;54709;43.614;1.576;2023-02-26T07:40:30;6.22;;;3.10;;
67904;SDS011;54709;43.614;1.576;2023-02-26T07:42:55;5.53;;;3.00;;
67904;SDS011;54709;43.614;1.576;2023-02-26T07:45:21;6.10;;;2.70;;
67904;SDS011;54709;43.614;1.576;2023-02-26T07:47:47;5.07;;;2.90;;
67904;SDS011;54709;43.614;1.576;2023-02-26T07:50:16;6.45;;;2.40;;
67904;SDS011;54709;43.614;1.576;2023-02-26T07:52:42;7.28;;;2.70;;
67904;SDS011;54709;43.614;1.576;2023-02-26T07:55:07;5.20;;;2.70;;
67904;SDS011;54709;43.614;1.576;2023-02-26T07:57:33;6.72;;;2.47;;
67904;SDS011;54709;43.614;1.576;2023-02-26T07:59:59;7.47;;;2.58;;
67904;SDS011;54709;43.614;1.576;2023-02-26T08:02:24;5.57;;;2.40;;
67904;SDS011;54709;43.614;1.576;2023-02-26T08:04:50;5.75;;;2.60;;
67904;SDS011;54709;43.614;1.576;2023-02-26T08:07:16;9.45;;;2.78;;
67904;SDS011;54709;43.614;1.576;2023-02-26T08:09:41;13.90;;;8.38;;
67904;SDS011;54709;43.614;1.576;2023-02-26T08:12:07;9.02;;;3.40;;
67904;SDS011;54709;43.614;1.576;2023-02-26T08:14:32;8.50;;;3.60;;
67904;SDS011;54709;43.614;1.576;2023-02-26T08:16:57;7.13;;;3.08;;
67904;SDS011;54709;43.614;1.576;2023-02-26T08:19:23;6.13;;;2.92;;
67904;SDS011;54709;43.614;1.576;2023-02-26T08:21:48;5.30;;;2.42;;
67904;SDS011;54709;43.614;1.576;2023-02-26T08:24:14;6.95;;;2.80;;
67904;SDS011;54709;43.614;1.576;2023-02-26T08:26:39;5.43;;;2.40;;
67904;SDS011;54709;43.614;1.576;2023-02-26T08:29:05;5.90;;;2.20;;
67904;SDS011;54709;43.614;1.576;2023-02-26T08:31:31;6.22;;;2.40;;
67904;SDS011;54709;43.614;1.576;2023-02-26T08:33:58;7.20;;;2.47;;
67904;SDS011;54709;43.614;1.576;2023-02-26T08:36:23;5.18;;;2.33;;
67904;SDS011;54709;43.614;1.576;2023-02-26T08:38:49;6.53;;;2.00;;
67904;SDS011;54709;43.614;1.576;2023-02-26T08:41:14;7.80;;;2.15;;
67904;SDS011;54709;43.614;1.576;2023-02-26T08:43:40;5.80;;;2.80;;
67904;SDS011;54709;43.614;1.576;2023-02-26T08:46:05;7.65;;;2.40;;
67904;SDS011;54709;43.614;1.576;2023-02-26T08:48:30;10.80;;;4.65;;
67904;SDS011;54709;43.614;1.576;2023-02-26T08:50:56;11.13;;;5.13;;
67904;SDS011;54709;43.614;1.576;2023-02-26T08:53:21;7.30;;;2.72;;
67904;SDS011;54709;43.614;1.576;2023-02-26T08:55:50;8.35;;;3.63;;
67904;SDS011;54709;43.614;1.576;2023-02-26T08:58:16;6.05;;;2.10;;
67904;SDS011;54709;43.614;1.576;2023-02-26T09:00:42;6.15;;;2.35;;
67904;SDS011;54709;43.614;1.576;2023-02-26T09:03:08;6.47;;;2.60;;
67904;SDS011;54709;43.614;1.576;2023-02-26T09:05:33;6.00;;;2.13;;
67904;SDS011;54709;43.614;1.576;2023-02-26T09:07:58;4.80;;;2.08;;
67904;SDS011;54709;43.614;1.576;2023-02-26T09:10:24;5.93;;;2.80;;
67904;SDS011;54709;43.614;1.576;2023-02-26T09:12:49;6.78;;;2.22;;
67904;SDS011;54709;43.614;1.576;2023-02-26T09:15:15;6.93;;;2.35;;
67904;SDS011;54709;43.614;1.576;2023-02-26T09:17:40;7.28;;;2.42;;
67904;SDS011;54709;43.614;1.576;2023-02-26T09:20:06;7.68;;;2.10;;
67904;SDS011;54709;43.614;1.576;2023-02-26T09:22:33;6.53;;;2.30;;
67904;SDS011;54709;43.614;1.576;2023-02-26T09:24:59;7.40;;;2.38;;
67904;SDS011;54709;43.614;1.576;2023-02-26T09:27:25;6.80;;;2.03;;
67904;SDS011;54709;43.614;1.576;2023-02-26T09:29:50;7.43;;;2.78;;
67904;SDS011;54709;43.614;1.576;2023-02-26T09:32:15;8.70;;;2.50;;
67904;SDS011;54709;43.614;1.576;2023-02-26T09:34:41;5.88;;;2.03;;
67904;SDS011;54709;43.614;1.576;2023-02-26T09:37:07;5.25;;;2.42;;
67904;SDS011;54709;43.614;1.576;2023-02-26T09:39:33;7.07;;;2.30;;
67904;SDS011;54709;43.614;1.576;2023-02-26T09:42:00;6.45;;;2.30;;
67904;SDS011;54709;43.614;1.576;2023-02-26T09:44:35;6.28;;;2.67;;
67904;SDS011;54709;43.614;1.576;2023-02-26T09:47:08;6.00;;;2.17;;
67904;SDS011;54709;43.614;1.576;2023-02-26T09:49:52;9.13;;;2.63;;
67904;SDS011;54709;43.614;1.576;2023-02-26T09:52:38;9.25;;;2.53;;
67904;SDS011;54709;43.614;1.576;2023-02-26T09:58:15;7.10;;;2.30;;
67904;SDS011;54709;43.614;1.576;2023-02-26T10:12:22;7.68;;;2.92;;
67904;SDS011;54709;43.614;1.576;2023-02-26T10:20:34;7.38;;;2.53;;
67904;SDS011;54709;43.614;1.576;2023-02-26T10:30:43;8.85;;;3.22;;
67904;SDS011;54709;43.614;1.576;2023-02-26T10:33:17;9.40;;;3.67;;
67904;SDS011;54709;43.614;1.576;2023-02-26T10:35:51;5.38;;;2.70;;
67904;SDS011;54709;43.614;1.576;2023-02-26T10:38:19;6.07;;;3.60;;
67904;SDS011;54709;43.614;1.576;2023-02-26T10:40:52;6.80;;;3.20;;
67904;SDS011;54709;43.614;1.576;2023-02-26T10:51:00;9.70;;;3.50;;
67904;SDS011;54709;43.614;1.576;2023-02-26T10:53:34;7.28;;;3.10;;
67904;SDS011;54709;43.614;1.576;2023-02-26T10:56:04;8.05;;;3.70;;
67904;SDS011;54709;43.614;1.576;2023-02-26T10:58:32;6.18;;;3.25;;
67904;SDS011;54709;43.614;1.576;2023-02-26T11:00:57;8.30;;;3.58;;
67904;SDS011;54709;43.614;1.576;2023-02-26T11:05:56;6.93;;;3.10;;
67904;SDS011;54709;43.614;1.576;2023-02-26T11:08:23;9.93;;;3.40;;
67904;SDS011;54709;43.614;1.576;2023-02-26T11:13:21;7.72;;;3.35;;
67904;SDS011;54709;43.614;1.576;2023-02-26T11:15:48;6.78;;;3.10;;
67904;SDS011;54709;43.614;1.576;2023-02-26T11:18:17;6.95;;;3.13;;
67904;SDS011;54709;43.614;1.576;2023-02-26T11:20:52;6.72;;;3.38;;
67904;SDS011;54709;43.614;1.576;2023-02-26T11:23:20;6.28;;;3.00;;
67904;SDS011;54709;43.614;1.576;2023-02-26T11:25:51;5.28;;;2.95;;
67904;SDS011;54709;43.614;1.576;2023-02-26T11:28:43;7.32;;;2.85;;
67904;SDS011;54709;43.614;1.576;2023-02-26T11:31:11;7.00;;;2.65;;
67904;SDS011;54709;43.614;1.576;2023-02-26T11:33:44;5.88;;;3.22;;
67904;SDS011;54709;43.614;1.576;2023-02-26T11:36:15;7.72;;;3.08;;
67904;SDS011;54709;43.614;1.576;2023-02-26T11:38:43;7.70;;;3.15;;
67904;SDS011;54709;43.614;1.576;2023-02-26T11:41:10;7.13;;;3.10;;
67904;SDS011;54709;43.614;1.576;2023-02-26T11:43:38;8.18;;;3.47;;
67904;SDS011;54709;43.614;1.576;2023-02-26T11:46:06;9.80;;;4.00;;
67904;SDS011;54709;43.614;1.576;2023-02-26T11:48:53;7.80;;;3.10;;
67904;SDS011;54709;43.614;1.576;2023-02-26T11:51:18;7.22;;;3.40;;
67904;SDS011;54709;43.614;1.576;2023-02-26T11:53:52;9.25;;;3.35;;
67904;SDS011;54709;43.614;1.576;2023-02-26T11:56:33;6.82;;;3.40;;
67904;SDS011;54709;43.614;1.576;2023-02-26T11:59:22;5.47;;;2.55;;
67904;SDS011;54709;43.614;1.576;2023-02-26T12:01:49;7.25;;;3.42;;
67904;SDS011;54709;43.614;1.576;2023-02-26T12:04:19;7.63;;;3.33;;
67904;SDS011;54709;43.614;1.576;2023-02-26T12:06:49;7.82;;;3.25;;
67904;SDS011;54709;43.614;1.576;2023-02-26T12:09:16;6.28;;;3.20;;
67904;SDS011;54709;43.614;1.576;2023-02-26T12:19:54;6.65;;;3.20;;
67904;SDS011;54709;43.614;1.576;2023-02-26T12:22:49;8.40;;;3.20;;
67904;SDS011;54709;43.614;1.576;2023-02-26T12:36:53;5.88;;;3.10;;
67904;SDS011;54709;43.614;1.576;2023-02-26T12:45:32;6.47;;;3.30;;
67904;SDS011;54709;43.614;1.576;2023-02-26T12:47:42;7.32;;;3.10;;
67904;SDS011;54709;43.614;1.576;2023-02-26T12:50:27;8.25;;;3.53;;
67904;SDS011;54709;43.614;1.576;2023-02-26T12:52:57;5.80;;;3.63;;
67904;SDS011;54709;43.614;1.576;2023-02-26T13:07:04;5.60;;;2.90;;
67904;SDS011;54709;43.614;1.576;2023-02-26T13:09:51;6.88;;;3.30;;
67904;SDS011;54709;43.614;1.576;2023-02-26T13:12:29;4.63;;;2.58;;
67904;SDS011;54709;43.614;1.576;2023-02-26T13:20:27;5.70;;;2.83;;
67904;SDS011;54709;43.614;1.576;2023-02-26T13:22:57;4.97;;;2.40;;
67904;SDS011;54709;43.614;1.576;2023-02-26T13:31:11;2.90;;;1.50;;
67904;SDS011;54709;43.614;1.576;2023-02-26T13:33:39;4.95;;;1.55;;
67904;SDS011;54709;43.614;1.576;2023-02-26T13:36:05;2.42;;;1.45;;
67904;SDS011;54709;43.614;1.576;2023-02-26T13:38:35;3.45;;;2.03;;
67904;SDS011;54709;43.614;1.576;2023-02-26T13:51:58;2.30;;;1.00;;
67904;SDS011;54709;43.614;1.576;2023-02-26T13:59:34;2.13;;;1.10;;
67904;SDS011;54709;43.614;1.576;2023-02-26T14:02:29;2.00;;;1.13;;
67904;SDS011;54709;43.614;1.576;2023-02-26T14:04:59;1.77;;;1.00;;
67904;SDS011;54709;43.614;1.576;2023-02-26T14:10:16;1.45;;;0.90;;
67904;SDS011;54709;43.614;1.576;2023-02-26T14:13:00;1.52;;;0.95;;
67904;SDS011;54709;43.614;1.576;2023-02-26T14:24:05;2.25;;;0.90;;
67904;SDS011;54709;43.614;1.576;2023-02-26T14:26:38;1.08;;;0.80;;
67904;SDS011;54709;43.614;1.576;2023-02-26T14:29:13;2.72;;;0.75;;
67904;SDS011;54709;43.614;1.576;2023-02-26T14:34:49;2.58;;;0.80;;
67904;SDS011;54709;43.614;1.576;2023-02-26T14:37:18;2.65;;;0.88;;
67904;SDS011;54709;43.614;1.576;2023-02-26T14:39:47;2.20;;;0.95;;
67904;SDS011;54709;43.614;1.576;2023-02-26T14:42:37;2.30;;;1.00;;
67904;SDS011;54709;43.614;1.576;2023-02-26T14:45:51;1.00;;;0.88;;
67904;SDS011;54709;43.614;1.576;2023-02-26T14:48:00;2.20;;;1.20;;
67904;SDS011;54709;43.614;1.576;2023-02-26T14:50:29;7.10;;;1.30;;
67904;SDS011;54709;43.614;1.576;2023-02-26T15:01:13;2.90;;;1.10;;
67904;SDS011;54709;43.614;1.576;2023-02-26T15:04:16;2.08;;;1.10;;
67904;SDS011;54709;43.614;1.576;2023-02-26T15:10:01;1.92;;;1.33;;
67904;SDS011;54709;43.614;1.576;2023-02-26T15:25:31;4.13;;;1.27;;
67904;SDS011;54709;43.614;1.576;2023-02-26T15:28:00;2.65;;;1.08;;
67904;SDS011;54709;43.614;1.576;2023-02-26T15:30:26;2.53;;;1.05;;
67904;SDS011;54709;43.614;1.576;2023-02-26T15:32:56;2.05;;;1.20;;
67904;SDS011;54709;43.614;1.576;2023-02-26T15:35:23;1.88;;;1.00;;
67904;SDS011;54709;43.614;1.576;2023-02-26T15:37:52;1.85;;;1.00;;
67904;SDS011;54709;43.614;1.576;2023-02-26T15:40:19;2.65;;;1.08;;
67904;SDS011;54709;43.614;1.576;2023-02-26T15:42:47;2.20;;;0.80;;
67904;SDS011;54709;43.614;1.576;2023-02-26T15:45:20;3.55;;;1.77;;
67904;SDS011;54709;43.614;1.576;2023-02-26T15:48:01;2.92;;;1.08;;
67904;SDS011;54709;43.614;1.576;2023-02-26T15:50:33;1.35;;;0.95;;
67904;SDS011;54709;43.614;1.576;2023-02-26T15:53:01;1.92;;;1.30;;
67904;SDS011;54709;43.614;1.576;2023-02-26T15:55:35;2.47;;;1.55;;
67904;SDS011;54709;43.614;1.576;2023-02-26T15:58:02;7.57;;;2.70;;
67904;SDS011;54709;43.614;1.576;2023-02-26T16:00:31;1.88;;;1.10;;
67904;SDS011;54709;43.614;1.576;2023-02-26T16:02:57;1.45;;;1.20;;
67904;SDS011;54709;43.614;1.576;2023-02-26T16:05:27;2.60;;;1.20;;
67904;SDS011;54709;43.614;1.576;2023-02-26T16:07:54;1.42;;;0.90;;
67904;SDS011;54709;43.614;1.576;2023-02-26T16:10:38;3.80;;;1.08;;
67904;SDS011;54709;43.614;1.576;2023-02-26T16:13:05;1.42;;;1.00;;
67904;SDS011;54709;43.614;1.576;2023-02-26T16:15:34;1.55;;;0.90;;
67904;SDS011;54709;43.614;1.576;2023-02-26T16:18:03;2.63;;;0.90;;
67904;SDS011;54709;43.614;1.576;2023-02-26T16:20:33;4.60;;;1.02;;
67904;SDS011;54709;43.614;1.576;2023-02-26T16:23:04;5.13;;;1.10;;
67904;SDS011;54709;43.614;1.576;2023-02-26T16:25:42;4.07;;;1.05;;
67904;SDS011;54709;43.614;1.576;2023-02-26T16:30:43;2.30;;;1.10;;
67904;SDS011;54709;43.614;1.576;2023-02-26T16:33:14;1.17;;;0.90;;
67904;SDS011;54709;43.614;1.576;2023-02-26T16:35:42;1.77;;;1.13;;
67904;SDS011;54709;43.614;1.576;2023-02-26T16:41:05;2.95;;;1.10;;
67904;SDS011;54709;43.614;1.576;2023-02-26T16:46:14;2.53;;;1.15;;
67904;SDS011;54709;43.614;1.576;2023-02-26T16:48:51;1.15;;;1.00;;
67904;SDS011;54709;43.614;1.576;2023-02-26T16:51:23;2.55;;;1.10;;
67904;SDS011;54709;43.614;1.576;2023-02-26T16:53:54;1.35;;;1.00;;
67904;SDS011;54709;43.614;1.576;2023-02-26T16:56:24;2.53;;;1.00;;
67904;SDS011;54709;43.614;1.576;2023-02-26T17:01:45;2.58;;;1.08;;
67904;SDS011;54709;43.614;1.576;2023-02-26T17:04:21;1.98;;;1.10;;
67904;SDS011;54709;43.614;1.576;2023-02-26T17:06:49;1.45;;;1.00;;
67904;SDS011;54709;43.614;1.576;2023-02-26T17:11:51;2.15;;;1.08;;
67904;SDS011;54709;43.614;1.576;2023-02-26T17:14:28;1.30;;;1.00;;
67904;SDS011;54709;43.614;1.576;2023-02-26T17:16:57;1.52;;;1.00;;
67904;SDS011;54709;43.614;1.576;2023-02-26T17:19:22;1.40;;;1.05;;
67904;SDS011;54709;43.614;1.576;2023-02-26T17:21:48;5.63;;;1.35;;
67904;SDS011;54709;43.614;1.576;2023-02-26T17:24:25;2.42;;;1.20;;
67904;SDS011;54709;43.614;1.576;2023-02-26T17:26:53;3.38;;;1.08;;
67904;SDS011;54709;43.614;1.576;2023-02-26T17:29:38;3.70;;;1.20;;
67904;SDS011;54709;43.614;1.576;2023-02-26T17:32:06;1.65;;;0.90;;
67904;SDS011;54709;43.614;1.576;2023-02-26T17:34:37;1.70;;;0.90;;
67904;SDS011;54709;43.614;1.576;2023-02-26T17:37:02;3.88;;;1.13;;
67904;SDS011;54709;43.614;1.576;2023-02-26T17:39:31;4.85;;;1.40;;
67904;SDS011;54709;43.614;1.576;2023-02-26T17:41:57;2.33;;;1.15;;
67904;SDS011;54709;43.614;1.576;2023-02-26T17:44:22;6.80;;;1.30;;
67904;SDS011;54709;43.614;1.576;2023-02-26T17:46:48;2.35;;;1.17;;
67904;SDS011;54709;43.614;1.576;2023-02-26T17:49:13;2.17;;;1.25;;
67904;SDS011;54709;43.614;1.576;2023-02-26T17:51:39;3.05;;;1.40;;
67904;SDS011;54709;43.614;1.576;2023-02-26T17:54:04;3.50;;;1.60;;
67904;SDS011;54709;43.614;1.576;2023-02-26T17:56:30;3.78;;;1.40;;
67904;SDS011;54709;43.614;1.576;2023-02-26T17:58:57;5.75;;;1.23;;
67904;SDS011;54709;43.614;1.576;2023-02-26T18:01:23;2.85;;;1.20;;
67904;SDS011;54709;43.614;1.576;2023-02-26T18:03:50;4.10;;;1.20;;
67904;SDS011;54709;43.614;1.576;2023-02-26T18:06:16;3.33;;;1.25;;
67904;SDS011;54709;43.614;1.576;2023-02-26T18:08:41;3.42;;;1.10;;
67904;SDS011;54709;43.614;1.576;2023-02-26T18:11:08;2.20;;;1.30;;
67904;SDS011;54709;43.614;1.576;2023-02-26T18:13:35;2.08;;;1.27;;
67904;SDS011;54709;43.614;1.576;2023-02-26T18:16:01;3.08;;;1.20;;